Ayer, MA

5:18 AM EDT on August 29, 2016 (GMT -0400)
Ayer Center | | Change Station

Elev 230 ft 42.56 °N, 71.59 °W | Updated 9 seconds ago

Clear
Clear
70.9 °F
Feels Like 77 °F
N
1.3
Wind Variable Wind from WSW
Gusts 2.5 mph

Today
High -- | Low -- °F
--% Chance of Precip.
Yesterday
High -- | Low -- °F
Precip. -- in
Pressure 30.08 in
Visibility 10.0 miles
Clouds Clear
Heat Index 77 °F
Dew Point 41 °F
Humidity 34%
Rainfall 0.00 in
Snow Depth Not available.
6:08 AM 7:24 PM
Waning Crescent, 10% visible
METAR KFIT 290852Z AUTO 21003KT 10SM CLR 23/17 A3008 RMK AO2 SLP185 T02280167 58008
Pressure 30.08 in
Visibility 10.0 miles
Clouds Clear
Heat Index 77 °F
Dew Point 41 °F
Humidity 34%
Rainfall 0.00 in
Snow Depth Not available.
6:08 AM 7:24 PM
Waning Crescent, 10% visible
METAR KFIT 290852Z AUTO 21003KT 10SM CLR 23/17 A3008 RMK AO2 SLP185 T02280167 58008

10-Day Weather Forecast

Almanac

Astronomy

Aug. 29, 2016 Rise Set
Actual Time
Civil Twilight
Nautical Twilight
Astronomical Twilight
Moon
Length of Visible Light
Length of Day
Tomorrow will be .
, % of the Moon is Illuminated

Today's Extremes

State Highs State Lows

Community

WunderPhotos

Upload Photos

1,935,798 photos uploaded!

WunderBlog® & News

Nearby

Air Quality

  Air Quality AQ Index Pollutant
Not available.

Snow Depth

Station Depth Elevation

Earthquake Activity

City Distance Mag. Time & Date
Minimum magnitude displayed is 2.5.

Coastal Water Temperatures

Place Temperature

Stations

Nearby Weather Stations

Station Location Temp. Windchill Dew Point Humidity Wind Precip. Elev Updated Type
                   

Watches & Warnings

There are currently no watches in effect.